sensor_id;sensor_type;location;lat;lon;timestamp;temperature;humidity
21602;DHT22;10963;50.934;4.668;2022-08-19T00:01:54;19.70;99.90
21602;DHT22;10963;50.934;4.668;2022-08-19T00:04:23;19.70;99.90
21602;DHT22;10963;50.934;4.668;2022-08-19T00:06:52;19.70;99.90
21602;DHT22;10963;50.934;4.668;2022-08-19T00:09:19;19.70;99.90
21602;DHT22;10963;50.934;4.668;2022-08-19T00:11:51;19.60;99.90
21602;DHT22;10963;50.934;4.668;2022-08-19T00:14:21;19.60;99.90
21602;DHT22;10963;50.934;4.668;2022-08-19T00:16:52;19.60;99.90
21602;DHT22;10963;50.934;4.668;2022-08-19T00:19:20;19.60;99.90
21602;DHT22;10963;50.934;4.668;2022-08-19T00:21:49;19.50;99.90
21602;DHT22;10963;50.934;4.668;2022-08-19T00:24:15;19.50;99.90
21602;DHT22;10963;50.934;4.668;2022-08-19T00:26:42;19.50;99.90
21602;DHT22;10963;50.934;4.668;2022-08-19T00:29:11;19.40;99.90
21602;DHT22;10963;50.934;4.668;2022-08-19T00:31:41;19.50;99.90
21602;DHT22;10963;50.934;4.668;2022-08-19T00:34:08;19.40;99.90
21602;DHT22;10963;50.934;4.668;2022-08-19T00:36:35;19.40;99.90
21602;DHT22;10963;50.934;4.668;2022-08-19T00:39:06;19.40;99.90
21602;DHT22;10963;50.934;4.668;2022-08-19T00:41:32;19.40;99.90
21602;DHT22;10963;50.934;4.668;2022-08-19T00:46:43;19.40;99.90
21602;DHT22;10963;50.934;4.668;2022-08-19T00:49:31;19.40;99.90
21602;DHT22;10963;50.934;4.668;2022-08-19T00:52:26;19.40;99.90
21602;DHT22;10963;50.934;4.668;2022-08-19T00:54:59;19.40;99.90
21602;DHT22;10963;50.934;4.668;2022-08-19T00:57:36;19.40;99.90
21602;DHT22;10963;50.934;4.668;2022-08-19T01:00:07;19.40;99.90
21602;DHT22;10963;50.934;4.668;2022-08-19T01:02:34;19.50;99.90
21602;DHT22;10963;50.934;4.668;2022-08-19T01:05:06;19.50;99.90
21602;DHT22;10963;50.934;4.668;2022-08-19T01:07:38;19.60;99.90
21602;DHT22;10963;50.934;4.668;2022-08-19T01:10:09;19.60;99.90
21602;DHT22;10963;50.934;4.668;2022-08-19T01:12:36;19.60;99.90
21602;DHT22;10963;50.934;4.668;2022-08-19T01:15:03;19.60;99.90
21602;DHT22;10963;50.934;4.668;2022-08-19T01:17:29;19.60;99.90
21602;DHT22;10963;50.934;4.668;2022-08-19T01:19:57;19.60;99.90
21602;DHT22;10963;50.934;4.668;2022-08-19T01:24:49;19.60;99.90
21602;DHT22;10963;50.934;4.668;2022-08-19T01:27:16;19.50;99.90
21602;DHT22;10963;50.934;4.668;2022-08-19T01:29:45;19.50;99.90
21602;DHT22;10963;50.934;4.668;2022-08-19T01:32:16;19.50;99.90
21602;DHT22;10963;50.934;4.668;2022-08-19T01:34:45;19.50;99.90
21602;DHT22;10963;50.934;4.668;2022-08-19T01:37:16;19.50;99.90
21602;DHT22;10963;50.934;4.668;2022-08-19T01:39:45;19.40;99.90
21602;DHT22;10963;50.934;4.668;2022-08-19T01:42:10;19.40;99.90
21602;DHT22;10963;50.934;4.668;2022-08-19T01:44:41;19.40;99.90
21602;DHT22;10963;50.934;4.668;2022-08-19T01:47:12;19.40;99.90
21602;DHT22;10963;50.934;4.668;2022-08-19T01:49:42;19.40;99.90
21602;DHT22;10963;50.934;4.668;2022-08-19T01:52:08;19.40;99.90
21602;DHT22;10963;50.934;4.668;2022-08-19T01:54:38;19.40;99.90
21602;DHT22;10963;50.934;4.668;2022-08-19T01:57:10;19.40;99.90
21602;DHT22;10963;50.934;4.668;2022-08-19T01:59:37;19.40;99.90
21602;DHT22;10963;50.934;4.668;2022-08-19T02:02:08;19.40;99.90
21602;DHT22;10963;50.934;4.668;2022-08-19T02:04:36;19.30;99.90
21602;DHT22;10963;50.934;4.668;2022-08-19T02:07:06;19.30;99.90
21602;DHT22;10963;50.934;4.668;2022-08-19T02:09:33;19.30;99.90
21602;DHT22;10963;50.934;4.668;2022-08-19T02:11:59;19.20;99.90
21602;DHT22;10963;50.934;4.668;2022-08-19T02:14:29;19.10;99.90
21602;DHT22;10963;50.934;4.668;2022-08-19T02:16:55;19.10;99.90
21602;DHT22;10963;50.934;4.668;2022-08-19T02:19:21;19.20;99.90
21602;DHT22;10963;50.934;4.668;2022-08-19T02:21:49;19.10;99.90
21602;DHT22;10963;50.934;4.668;2022-08-19T02:24:17;19.20;99.90
21602;DHT22;10963;50.934;4.668;2022-08-19T02:26:45;19.20;99.90
21602;DHT22;10963;50.934;4.668;2022-08-19T02:29:11;19.20;99.90
21602;DHT22;10963;50.934;4.668;2022-08-19T02:31:37;19.10;99.90
21602;DHT22;10963;50.934;4.668;2022-08-19T02:34:03;19.10;99.90
21602;DHT22;10963;50.934;4.668;2022-08-19T02:36:32;19.10;99.90
21602;DHT22;10963;50.934;4.668;2022-08-19T02:39:00;18.90;99.90
21602;DHT22;10963;50.934;4.668;2022-08-19T02:41:28;18.90;99.90
21602;DHT22;10963;50.934;4.668;2022-08-19T02:43:59;18.90;99.90
21602;DHT22;10963;50.934;4.668;2022-08-19T02:46:28;18.90;99.90
21602;DHT22;10963;50.934;4.668;2022-08-19T02:49:02;18.90;99.90
21602;DHT22;10963;50.934;4.668;2022-08-19T02:51:34;18.80;99.90
21602;DHT22;10963;50.934;4.668;2022-08-19T02:54:03;18.80;99.90
21602;DHT22;10963;50.934;4.668;2022-08-19T02:56:33;18.70;99.90
21602;DHT22;10963;50.934;4.668;2022-08-19T02:59:03;18.70;99.90
21602;DHT22;10963;50.934;4.668;2022-08-19T03:01:35;18.60;99.90
21602;DHT22;10963;50.934;4.668;2022-08-19T03:04:04;18.60;99.90
21602;DHT22;10963;50.934;4.668;2022-08-19T03:06:30;18.50;99.90
21602;DHT22;10963;50.934;4.668;2022-08-19T03:08:58;18.40;99.90
21602;DHT22;10963;50.934;4.668;2022-08-19T03:11:30;18.50;99.90
21602;DHT22;10963;50.934;4.668;2022-08-19T03:13:58;18.40;99.90
21602;DHT22;10963;50.934;4.668;2022-08-19T03:16:26;18.40;99.90
21602;DHT22;10963;50.934;4.668;2022-08-19T03:18:56;18.30;99.90
21602;DHT22;10963;50.934;4.668;2022-08-19T03:21:25;18.30;99.90
21602;DHT22;10963;50.934;4.668;2022-08-19T03:23:59;18.30;99.90
21602;DHT22;10963;50.934;4.668;2022-08-19T03:26:25;18.30;99.90
21602;DHT22;10963;50.934;4.668;2022-08-19T03:28:51;18.30;99.90
21602;DHT22;10963;50.934;4.668;2022-08-19T03:31:24;18.30;99.90
21602;DHT22;10963;50.934;4.668;2022-08-19T03:33:51;18.40;99.90
21602;DHT22;10963;50.934;4.668;2022-08-19T03:36:22;18.40;99.90
21602;DHT22;10963;50.934;4.668;2022-08-19T03:38:58;18.40;99.90
21602;DHT22;10963;50.934;4.668;2022-08-19T03:41:30;18.30;99.90
21602;DHT22;10963;50.934;4.668;2022-08-19T03:44:00;18.20;99.90
21602;DHT22;10963;50.934;4.668;2022-08-19T03:46:29;18.10;99.90
21602;DHT22;10963;50.934;4.668;2022-08-19T03:48:56;18.00;99.90
21602;DHT22;10963;50.934;4.668;2022-08-19T03:51:28;18.10;99.90
21602;DHT22;10963;50.934;4.668;2022-08-19T03:53:58;18.00;99.90
21602;DHT22;10963;50.934;4.668;2022-08-19T03:56:28;18.00;99.90
21602;DHT22;10963;50.934;4.668;2022-08-19T03:58:55;18.00;99.90
21602;DHT22;10963;50.934;4.668;2022-08-19T04:01:27;18.00;99.90
21602;DHT22;10963;50.934;4.668;2022-08-19T04:04:00;18.00;99.90
21602;DHT22;10963;50.934;4.668;2022-08-19T04:06:30;18.00;99.90
21602;DHT22;10963;50.934;4.668;2022-08-19T04:09:00;18.00;99.90
21602;DHT22;10963;50.934;4.668;2022-08-19T04:11:30;18.00;99.90
21602;DHT22;10963;50.934;4.668;2022-08-19T04:13:59;18.00;99.90
21602;DHT22;10963;50.934;4.668;2022-08-19T04:16:28;18.00;99.90
21602;DHT22;10963;50.934;4.668;2022-08-19T04:18:58;17.90;99.90
21602;DHT22;10963;50.934;4.668;2022-08-19T04:21:29;17.90;99.90
21602;DHT22;10963;50.934;4.668;2022-08-19T04:23:58;17.90;99.90
21602;DHT22;10963;50.934;4.668;2022-08-19T04:26:29;17.90;99.90
21602;DHT22;10963;50.934;4.668;2022-08-19T04:28:58;17.90;99.90
21602;DHT22;10963;50.934;4.668;2022-08-19T04:31:27;17.90;99.90
21602;DHT22;10963;50.934;4.668;2022-08-19T04:33:56;17.80;99.90
21602;DHT22;10963;50.934;4.668;2022-08-19T04:36:28;17.80;99.90
21602;DHT22;10963;50.934;4.668;2022-08-19T04:38:59;17.80;99.90
21602;DHT22;10963;50.934;4.668;2022-08-19T04:41:28;17.70;99.90
21602;DHT22;10963;50.934;4.668;2022-08-19T04:44:12;17.80;99.90
21602;DHT22;10963;50.934;4.668;2022-08-19T04:46:39;17.80;99.90
21602;DHT22;10963;50.934;4.668;2022-08-19T04:49:10;17.80;99.90
21602;DHT22;10963;50.934;4.668;2022-08-19T04:51:42;17.80;99.90
21602;DHT22;10963;50.934;4.668;2022-08-19T04:54:12;17.80;99.90
21602;DHT22;10963;50.934;4.668;2022-08-19T04:56:42;17.80;99.90
21602;DHT22;10963;50.934;4.668;2022-08-19T04:59:09;17.80;99.90
21602;DHT22;10963;50.934;4.668;2022-08-19T05:01:42;17.80;99.90
21602;DHT22;10963;50.934;4.668;2022-08-19T05:04:09;17.80;99.90
21602;DHT22;10963;50.934;4.668;2022-08-19T05:06:39;17.80;99.90
21602;DHT22;10963;50.934;4.668;2022-08-19T05:09:05;17.90;99.90
21602;DHT22;10963;50.934;4.668;2022-08-19T05:11:35;17.90;99.90
21602;DHT22;10963;50.934;4.668;2022-08-19T05:14:05;18.00;99.90
21602;DHT22;10963;50.934;4.668;2022-08-19T05:16:31;18.00;99.90
21602;DHT22;10963;50.934;4.668;2022-08-19T05:18:59;18.10;99.90
21602;DHT22;10963;50.934;4.668;2022-08-19T05:21:48;18.20;99.90
21602;DHT22;10963;50.934;4.668;2022-08-19T05:24:35;18.30;99.90
21602;DHT22;10963;50.934;4.668;2022-08-19T05:27:03;18.50;99.90
21602;DHT22;10963;50.934;4.668;2022-08-19T05:29:32;18.60;99.90
21602;DHT22;10963;50.934;4.668;2022-08-19T05:32:00;18.70;99.90
21602;DHT22;10963;50.934;4.668;2022-08-19T05:34:26;18.80;99.90
21602;DHT22;10963;50.934;4.668;2022-08-19T05:36:55;18.90;99.90
21602;DHT22;10963;50.934;4.668;2022-08-19T05:39:28;19.00;99.90
21602;DHT22;10963;50.934;4.668;2022-08-19T05:42:01;19.10;99.90
21602;DHT22;10963;50.934;4.668;2022-08-19T05:44:31;19.30;99.90
21602;DHT22;10963;50.934;4.668;2022-08-19T05:47:04;19.40;99.90
21602;DHT22;10963;50.934;4.668;2022-08-19T05:49:36;19.70;99.90
21602;DHT22;10963;50.934;4.668;2022-08-19T05:52:07;19.80;99.90
21602;DHT22;10963;50.934;4.668;2022-08-19T05:54:33;19.80;99.90
21602;DHT22;10963;50.934;4.668;2022-08-19T05:57:02;19.80;99.90
21602;DHT22;10963;50.934;4.668;2022-08-19T05:59:28;19.90;99.90
21602;DHT22;10963;50.934;4.668;2022-08-19T06:01:56;20.00;99.90
21602;DHT22;10963;50.934;4.668;2022-08-19T06:04:24;20.10;99.90
21602;DHT22;10963;50.934;4.668;2022-08-19T06:06:52;20.20;99.90
21602;DHT22;10963;50.934;4.668;2022-08-19T06:09:22;20.40;99.90
21602;DHT22;10963;50.934;4.668;2022-08-19T06:11:51;20.50;99.90
21602;DHT22;10963;50.934;4.668;2022-08-19T06:14:23;20.60;99.90
21602;DHT22;10963;50.934;4.668;2022-08-19T06:16:49;20.70;99.90
21602;DHT22;10963;50.934;4.668;2022-08-19T06:19:23;20.70;99.90
21602;DHT22;10963;50.934;4.668;2022-08-19T06:21:50;20.90;99.90
21602;DHT22;10963;50.934;4.668;2022-08-19T06:24:20;21.10;99.90
21602;DHT22;10963;50.934;4.668;2022-08-19T06:26:52;21.10;99.90
21602;DHT22;10963;50.934;4.668;2022-08-19T06:29:23;21.20;99.90
21602;DHT22;10963;50.934;4.668;2022-08-19T06:31:52;21.30;99.90
21602;DHT22;10963;50.934;4.668;2022-08-19T06:34:19;21.60;99.90
21602;DHT22;10963;50.934;4.668;2022-08-19T06:36:49;21.80;99.90
21602;DHT22;10963;50.934;4.668;2022-08-19T06:39:18;22.20;99.90
21602;DHT22;10963;50.934;4.668;2022-08-19T06:41:46;22.30;99.90
21602;DHT22;10963;50.934;4.668;2022-08-19T06:44:15;22.40;99.90
21602;DHT22;10963;50.934;4.668;2022-08-19T06:46:41;22.60;99.90
21602;DHT22;10963;50.934;4.668;2022-08-19T06:49:10;22.80;99.90
21602;DHT22;10963;50.934;4.668;2022-08-19T06:51:46;23.00;99.90
21602;DHT22;10963;50.934;4.668;2022-08-19T06:54:18;23.20;99.90
21602;DHT22;10963;50.934;4.668;2022-08-19T06:56:49;22.70;99.90
21602;DHT22;10963;50.934;4.668;2022-08-19T06:59:19;22.70;99.90
21602;DHT22;10963;50.934;4.668;2022-08-19T07:01:50;22.90;99.90
21602;DHT22;10963;50.934;4.668;2022-08-19T07:04:20;23.20;99.90
21602;DHT22;10963;50.934;4.668;2022-08-19T07:06:50;23.20;99.90
21602;DHT22;10963;50.934;4.668;2022-08-19T07:09:19;23.30;99.90
21602;DHT22;10963;50.934;4.668;2022-08-19T07:11:52;23.40;99.90
21602;DHT22;10963;50.934;4.668;2022-08-19T07:14:20;23.30;99.90
21602;DHT22;10963;50.934;4.668;2022-08-19T07:16:48;23.20;99.90
21602;DHT22;10963;50.934;4.668;2022-08-19T07:19:19;23.30;99.90
21602;DHT22;10963;50.934;4.668;2022-08-19T07:21:50;23.30;99.90
21602;DHT22;10963;50.934;4.668;2022-08-19T07:24:40;23.40;99.90
21602;DHT22;10963;50.934;4.668;2022-08-19T07:27:13;23.60;99.90
21602;DHT22;10963;50.934;4.668;2022-08-19T07:29:41;23.70;99.90
21602;DHT22;10963;50.934;4.668;2022-08-19T07:32:07;24.20;99.90
21602;DHT22;10963;50.934;4.668;2022-08-19T07:34:34;24.60;99.90
21602;DHT22;10963;50.934;4.668;2022-08-19T07:37:06;24.70;99.90
21602;DHT22;10963;50.934;4.668;2022-08-19T07:39:36;24.70;99.90
21602;DHT22;10963;50.934;4.668;2022-08-19T07:42:08;24.70;99.90
21602;DHT22;10963;50.934;4.668;2022-08-19T07:44:37;24.70;99.90
21602;DHT22;10963;50.934;4.668;2022-08-19T07:47:06;24.70;99.90
21602;DHT22;10963;50.934;4.668;2022-08-19T07:49:32;24.70;99.90
21602;DHT22;10963;50.934;4.668;2022-08-19T07:52:05;24.50;99.90
21602;DHT22;10963;50.934;4.668;2022-08-19T07:54:33;24.40;99.90
21602;DHT22;10963;50.934;4.668;2022-08-19T07:57:02;24.30;99.90
21602;DHT22;10963;50.934;4.668;2022-08-19T07:59:31;24.10;99.90
21602;DHT22;10963;50.934;4.668;2022-08-19T08:01:57;24.20;99.90
21602;DHT22;10963;50.934;4.668;2022-08-19T08:04:27;24.30;99.90
21602;DHT22;10963;50.934;4.668;2022-08-19T08:07:11;24.50;99.90
21602;DHT22;10963;50.934;4.668;2022-08-19T08:09:56;24.80;99.90
21602;DHT22;10963;50.934;4.668;2022-08-19T08:12:28;24.90;99.90
21602;DHT22;10963;50.934;4.668;2022-08-19T08:14:58;25.00;99.90
21602;DHT22;10963;50.934;4.668;2022-08-19T08:17:26;24.70;99.90
21602;DHT22;10963;50.934;4.668;2022-08-19T08:19:53;24.80;99.90
21602;DHT22;10963;50.934;4.668;2022-08-19T08:22:21;24.80;99.90
21602;DHT22;10963;50.934;4.668;2022-08-19T08:25:09;24.90;99.90
21602;DHT22;10963;50.934;4.668;2022-08-19T08:27:39;25.00;99.90
21602;DHT22;10963;50.934;4.668;2022-08-19T08:30:18;25.30;99.90
21602;DHT22;10963;50.934;4.668;2022-08-19T08:32:44;25.60;99.90
21602;DHT22;10963;50.934;4.668;2022-08-19T08:35:15;25.70;99.90
21602;DHT22;10963;50.934;4.668;2022-08-19T08:37:45;25.90;99.90
21602;DHT22;10963;50.934;4.668;2022-08-19T08:40:31;26.00;99.90
21602;DHT22;10963;50.934;4.668;2022-08-19T08:45:46;26.10;99.90
21602;DHT22;10963;50.934;4.668;2022-08-19T08:48:35;26.50;99.90
21602;DHT22;10963;50.934;4.668;2022-08-19T08:51:05;27.10;99.90
21602;DHT22;10963;50.934;4.668;2022-08-19T08:53:35;27.00;99.90
21602;DHT22;10963;50.934;4.668;2022-08-19T08:56:09;27.40;99.90
21602;DHT22;10963;50.934;4.668;2022-08-19T08:58:56;27.20;99.90
21602;DHT22;10963;50.934;4.668;2022-08-19T09:01:23;27.40;99.90
21602;DHT22;10963;50.934;4.668;2022-08-19T09:03:49;27.40;99.90
21602;DHT22;10963;50.934;4.668;2022-08-19T09:09:14;26.70;99.90
21602;DHT22;10963;50.934;4.668;2022-08-19T09:14:18;26.50;99.90
21602;DHT22;10963;50.934;4.668;2022-08-19T09:16:52;26.50;99.90
21602;DHT22;10963;50.934;4.668;2022-08-19T09:19:19;26.50;99.90
21602;DHT22;10963;50.934;4.668;2022-08-19T09:21:47;26.60;99.90
21602;DHT22;10963;50.934;4.668;2022-08-19T09:24:16;26.50;99.90
21602;DHT22;10963;50.934;4.668;2022-08-19T09:26:42;26.40;99.90
21602;DHT22;10963;50.934;4.668;2022-08-19T09:29:09;26.50;99.90
21602;DHT22;10963;50.934;4.668;2022-08-19T09:31:36;26.60;99.90
21602;DHT22;10963;50.934;4.668;2022-08-19T09:34:01;26.60;99.90
21602;DHT22;10963;50.934;4.668;2022-08-19T09:36:32;26.60;99.90
21602;DHT22;10963;50.934;4.668;2022-08-19T09:39:03;26.50;99.90
21602;DHT22;10963;50.934;4.668;2022-08-19T09:41:36;26.60;99.90
21602;DHT22;10963;50.934;4.668;2022-08-19T09:44:04;26.70;99.90
21602;DHT22;10963;50.934;4.668;2022-08-19T09:46:32;26.60;99.90
21602;DHT22;10963;50.934;4.668;2022-08-19T09:49:00;26.50;99.90
21602;DHT22;10963;50.934;4.668;2022-08-19T09:51:28;26.40;99.90
21602;DHT22;10963;50.934;4.668;2022-08-19T09:54:02;26.60;99.90
21602;DHT22;10963;50.934;4.668;2022-08-19T09:56:31;26.60;99.90
21602;DHT22;10963;50.934;4.668;2022-08-19T09:58:58;27.00;99.90
21602;DHT22;10963;50.934;4.668;2022-08-19T10:01:27;27.00;99.90
21602;DHT22;10963;50.934;4.668;2022-08-19T10:03:56;27.30;99.90
21602;DHT22;10963;50.934;4.668;2022-08-19T10:06:26;27.70;99.90
21602;DHT22;10963;50.934;4.668;2022-08-19T10:08:55;27.40;99.90
21602;DHT22;10963;50.934;4.668;2022-08-19T10:11:24;27.50;99.90
21602;DHT22;10963;50.934;4.668;2022-08-19T10:13:53;27.30;99.90
21602;DHT22;10963;50.934;4.668;2022-08-19T10:16:23;26.90;99.90
21602;DHT22;10963;50.934;4.668;2022-08-19T10:18:53;26.90;99.90
21602;DHT22;10963;50.934;4.668;2022-08-19T10:21:30;27.10;99.90
21602;DHT22;10963;50.934;4.668;2022-08-19T10:23:59;27.20;99.90
21602;DHT22;10963;50.934;4.668;2022-08-19T10:26:34;27.10;99.90
21602;DHT22;10963;50.934;4.668;2022-08-19T10:29:04;27.20;99.90
21602;DHT22;10963;50.934;4.668;2022-08-19T10:31:34;27.00;99.90
21602;DHT22;10963;50.934;4.668;2022-08-19T10:34:02;27.20;99.90
21602;DHT22;10963;50.934;4.668;2022-08-19T10:36:33;27.20;99.90
21602;DHT22;10963;50.934;4.668;2022-08-19T10:39:08;27.70;99.90
21602;DHT22;10963;50.934;4.668;2022-08-19T10:41:38;28.00;99.90
21602;DHT22;10963;50.934;4.668;2022-08-19T10:44:08;27.90;99.90
21602;DHT22;10963;50.934;4.668;2022-08-19T10:46:40;28.10;99.90
21602;DHT22;10963;50.934;4.668;2022-08-19T10:49:13;28.10;99.90
21602;DHT22;10963;50.934;4.668;2022-08-19T10:51:39;28.50;99.90
21602;DHT22;10963;50.934;4.668;2022-08-19T10:54:29;28.40;99.90
21602;DHT22;10963;50.934;4.668;2022-08-19T10:57:14;28.40;99.90
21602;DHT22;10963;50.934;4.668;2022-08-19T10:59:45;28.70;99.90
21602;DHT22;10963;50.934;4.668;2022-08-19T11:02:14;28.80;99.90
21602;DHT22;10963;50.934;4.668;2022-08-19T11:04:40;28.80;99.90
21602;DHT22;10963;50.934;4.668;2022-08-19T11:07:11;27.80;99.90
21602;DHT22;10963;50.934;4.668;2022-08-19T11:09:41;28.00;99.90
21602;DHT22;10963;50.934;4.668;2022-08-19T11:12:08;28.10;99.90
21602;DHT22;10963;50.934;4.668;2022-08-19T11:14:37;28.30;99.90
21602;DHT22;10963;50.934;4.668;2022-08-19T11:17:04;28.90;99.90
21602;DHT22;10963;50.934;4.668;2022-08-19T11:19:35;28.90;99.90
21602;DHT22;10963;50.934;4.668;2022-08-19T11:22:03;28.80;99.90
21602;DHT22;10963;50.934;4.668;2022-08-19T11:24:31;28.90;99.90
21602;DHT22;10963;50.934;4.668;2022-08-19T11:27:04;29.00;99.90
21602;DHT22;10963;50.934;4.668;2022-08-19T11:29:32;29.00;99.90
21602;DHT22;10963;50.934;4.668;2022-08-19T11:32:02;29.10;99.90
21602;DHT22;10963;50.934;4.668;2022-08-19T11:34:31;28.90;99.90
21602;DHT22;10963;50.934;4.668;2022-08-19T11:36:56;29.10;99.90
21602;DHT22;10963;50.934;4.668;2022-08-19T11:39:28;28.90;99.90
21602;DHT22;10963;50.934;4.668;2022-08-19T11:41:57;28.60;99.90
21602;DHT22;10963;50.934;4.668;2022-08-19T11:44:23;28.00;99.90
21602;DHT22;10963;50.934;4.668;2022-08-19T11:46:49;27.60;99.90
21602;DHT22;10963;50.934;4.668;2022-08-19T11:49:17;27.50;99.90
21602;DHT22;10963;50.934;4.668;2022-08-19T11:51:49;27.40;99.90
21602;DHT22;10963;50.934;4.668;2022-08-19T11:54:18;27.10;99.90
21602;DHT22;10963;50.934;4.668;2022-08-19T11:56:49;27.10;99.90
21602;DHT22;10963;50.934;4.668;2022-08-19T11:59:16;27.00;99.90
21602;DHT22;10963;50.934;4.668;2022-08-19T12:01:45;26.70;99.90
21602;DHT22;10963;50.934;4.668;2022-08-19T12:04:17;26.70;99.90
21602;DHT22;10963;50.934;4.668;2022-08-19T12:06:42;26.40;99.90
21602;DHT22;10963;50.934;4.668;2022-08-19T12:09:11;26.50;99.90
21602;DHT22;10963;50.934;4.668;2022-08-19T12:11:40;26.50;99.90
21602;DHT22;10963;50.934;4.668;2022-08-19T12:14:08;26.50;99.90
21602;DHT22;10963;50.934;4.668;2022-08-19T12:16:34;26.70;99.90
21602;DHT22;10963;50.934;4.668;2022-08-19T12:19:00;26.70;99.90
21602;DHT22;10963;50.934;4.668;2022-08-19T12:21:33;26.90;99.90
21602;DHT22;10963;50.934;4.668;2022-08-19T12:24:00;27.10;99.90
21602;DHT22;10963;50.934;4.668;2022-08-19T12:26:28;27.20;99.90
21602;DHT22;10963;50.934;4.668;2022-08-19T12:28:57;27.50;99.90
21602;DHT22;10963;50.934;4.668;2022-08-19T12:31:25;27.90;99.90
21602;DHT22;10963;50.934;4.668;2022-08-19T12:33:53;28.10;99.90
21602;DHT22;10963;50.934;4.668;2022-08-19T12:36:19;27.90;99.90
21602;DHT22;10963;50.934;4.668;2022-08-19T12:38:47;27.90;99.90
21602;DHT22;10963;50.934;4.668;2022-08-19T12:41:18;28.00;99.90
21602;DHT22;10963;50.934;4.668;2022-08-19T12:43:46;28.00;99.90
21602;DHT22;10963;50.934;4.668;2022-08-19T12:46:13;27.90;99.90
21602;DHT22;10963;50.934;4.668;2022-08-19T12:48:39;28.20;99.90
21602;DHT22;10963;50.934;4.668;2022-08-19T12:51:14;28.30;99.90
21602;DHT22;10963;50.934;4.668;2022-08-19T12:53:44;28.80;99.90
21602;DHT22;10963;50.934;4.668;2022-08-19T12:56:13;28.30;99.90
21602;DHT22;10963;50.934;4.668;2022-08-19T12:58:42;28.70;99.90
21602;DHT22;10963;50.934;4.668;2022-08-19T13:01:14;28.90;99.90
21602;DHT22;10963;50.934;4.668;2022-08-19T13:03:44;28.70;99.90
21602;DHT22;10963;50.934;4.668;2022-08-19T13:06:15;29.00;99.90
21602;DHT22;10963;50.934;4.668;2022-08-19T13:08:43;28.70;99.90
21602;DHT22;10963;50.934;4.668;2022-08-19T13:11:13;28.80;99.90
21602;DHT22;10963;50.934;4.668;2022-08-19T13:13:47;28.60;99.90
21602;DHT22;10963;50.934;4.668;2022-08-19T13:16:14;29.10;99.90
21602;DHT22;10963;50.934;4.668;2022-08-19T13:18:44;29.30;99.90
21602;DHT22;10963;50.934;4.668;2022-08-19T13:21:10;28.50;99.90
21602;DHT22;10963;50.934;4.668;2022-08-19T13:23:38;28.90;99.90
21602;DHT22;10963;50.934;4.668;2022-08-19T13:26:06;29.10;99.90
21602;DHT22;10963;50.934;4.668;2022-08-19T13:28:33;29.00;99.90
21602;DHT22;10963;50.934;4.668;2022-08-19T13:31:22;29.20;99.90
21602;DHT22;10963;50.934;4.668;2022-08-19T13:34:07;29.60;99.90
21602;DHT22;10963;50.934;4.668;2022-08-19T13:36:33;29.80;99.90
21602;DHT22;10963;50.934;4.668;2022-08-19T13:39:02;29.70;99.90
21602;DHT22;10963;50.934;4.668;2022-08-19T13:41:32;29.70;99.90
21602;DHT22;10963;50.934;4.668;2022-08-19T13:44:01;29.40;99.90
21602;DHT22;10963;50.934;4.668;2022-08-19T13:46:27;29.20;99.90
21602;DHT22;10963;50.934;4.668;2022-08-19T13:48:54;29.40;99.90
21602;DHT22;10963;50.934;4.668;2022-08-19T13:51:26;29.60;99.90
21602;DHT22;10963;50.934;4.668;2022-08-19T13:53:52;30.00;99.90
21602;DHT22;10963;50.934;4.668;2022-08-19T13:56:20;30.40;99.90
21602;DHT22;10963;50.934;4.668;2022-08-19T13:58:48;30.50;99.90
21602;DHT22;10963;50.934;4.668;2022-08-19T14:01:21;30.70;99.90
21602;DHT22;10963;50.934;4.668;2022-08-19T14:03:50;30.50;99.90
21602;DHT22;10963;50.934;4.668;2022-08-19T14:06:18;30.20;99.90
21602;DHT22;10963;50.934;4.668;2022-08-19T14:08:47;30.10;99.90
21602;DHT22;10963;50.934;4.668;2022-08-19T14:11:15;29.80;99.90
21602;DHT22;10963;50.934;4.668;2022-08-19T14:13:44;29.80;99.90
21602;DHT22;10963;50.934;4.668;2022-08-19T14:16:14;29.90;99.90
21602;DHT22;10963;50.934;4.668;2022-08-19T14:18:42;29.70;99.90
21602;DHT22;10963;50.934;4.668;2022-08-19T14:21:15;29.70;99.90
21602;DHT22;10963;50.934;4.668;2022-08-19T14:23:46;29.00;99.90
21602;DHT22;10963;50.934;4.668;2022-08-19T14:26:17;28.20;99.90
21602;DHT22;10963;50.934;4.668;2022-08-19T14:28:46;27.90;99.90
21602;DHT22;10963;50.934;4.668;2022-08-19T14:31:16;28.20;99.90
21602;DHT22;10963;50.934;4.668;2022-08-19T14:33:47;28.50;99.90
21602;DHT22;10963;50.934;4.668;2022-08-19T14:36:13;28.80;99.90
21602;DHT22;10963;50.934;4.668;2022-08-19T14:38:38;29.20;99.90
21602;DHT22;10963;50.934;4.668;2022-08-19T14:41:10;29.30;99.90
21602;DHT22;10963;50.934;4.668;2022-08-19T14:43:36;29.50;99.90
21602;DHT22;10963;50.934;4.668;2022-08-19T14:46:05;29.30;99.90
21602;DHT22;10963;50.934;4.668;2022-08-19T14:48:31;28.70;99.90
21602;DHT22;10963;50.934;4.668;2022-08-19T14:50:59;28.70;99.90
21602;DHT22;10963;50.934;4.668;2022-08-19T14:53:24;28.30;99.90
21602;DHT22;10963;50.934;4.668;2022-08-19T14:55:55;28.50;99.90
21602;DHT22;10963;50.934;4.668;2022-08-19T14:58:23;27.90;99.90
21602;DHT22;10963;50.934;4.668;2022-08-19T15:00:48;27.60;99.90
21602;DHT22;10963;50.934;4.668;2022-08-19T15:03:14;27.40;99.90
21602;DHT22;10963;50.934;4.668;2022-08-19T15:05:40;27.50;99.90
21602;DHT22;10963;50.934;4.668;2022-08-19T15:08:10;27.50;99.90
21602;DHT22;10963;50.934;4.668;2022-08-19T15:10:38;27.20;99.90
21602;DHT22;10963;50.934;4.668;2022-08-19T15:13:04;27.10;99.90
21602;DHT22;10963;50.934;4.668;2022-08-19T15:15:32;27.20;99.90
21602;DHT22;10963;50.934;4.668;2022-08-19T15:18:01;27.30;99.90
21602;DHT22;10963;50.934;4.668;2022-08-19T15:20:29;27.30;99.90
21602;DHT22;10963;50.934;4.668;2022-08-19T15:22:57;27.30;99.90
21602;DHT22;10963;50.934;4.668;2022-08-19T15:25:26;27.40;99.90
21602;DHT22;10963;50.934;4.668;2022-08-19T15:27:55;27.10;99.90
21602;DHT22;10963;50.934;4.668;2022-08-19T15:30:23;27.20;99.90
21602;DHT22;10963;50.934;4.668;2022-08-19T15:32:52;27.20;99.90
21602;DHT22;10963;50.934;4.668;2022-08-19T15:35:23;27.20;99.90
21602;DHT22;10963;50.934;4.668;2022-08-19T15:37:50;27.30;99.90
21602;DHT22;10963;50.934;4.668;2022-08-19T15:40:18;27.30;99.90
21602;DHT22;10963;50.934;4.668;2022-08-19T15:42:49;27.10;99.90
21602;DHT22;10963;50.934;4.668;2022-08-19T15:45:21;27.20;99.90
21602;DHT22;10963;50.934;4.668;2022-08-19T15:47:47;27.20;99.90
21602;DHT22;10963;50.934;4.668;2022-08-19T15:50:19;27.30;99.90
21602;DHT22;10963;50.934;4.668;2022-08-19T15:52:56;27.40;99.90
21602;DHT22;10963;50.934;4.668;2022-08-19T15:55:27;27.40;99.90
21602;DHT22;10963;50.934;4.668;2022-08-19T15:58:00;27.40;99.90
21602;DHT22;10963;50.934;4.668;2022-08-19T16:00:44;27.50;99.90